createdAt,value
2019-03-18T00:00:41.097Z,100832.03
2019-03-18T00:05:35.062Z,100833.75
2019-03-18T00:10:29.128Z,100833.59
2019-03-18T00:15:23.192Z,100841.93
2019-03-18T00:20:17.160Z,100839.68
2019-03-18T00:25:14.639Z,100845.15
2019-03-18T00:30:16.303Z,100851.86
2019-03-18T00:35:10.352Z,100858.95
2019-03-18T00:40:12.718Z,100858.05
2019-03-18T00:45:14.806Z,100859.27
2019-03-18T00:50:05.559Z,100860.88
2019-03-18T00:54:59.539Z,100862.98
2019-03-18T00:59:53.495Z,100862.92
2019-03-18T01:04:47.509Z,100862.99
2019-03-18T01:09:41.510Z,100874.21
2019-03-18T01:14:35.476Z,100880.14
2019-03-18T01:19:29.431Z,100873.59
2019-03-18T01:24:23.386Z,100870.33
2019-03-18T01:29:17.368Z,100861.77
2019-03-18T01:34:11.442Z,100875.11
2019-03-18T01:39:05.500Z,100876.80
2019-03-18T01:43:59.479Z,100890.33
2019-03-18T01:48:53.479Z,100888.08
2019-03-18T01:53:47.436Z,100888.23
2019-03-18T01:58:41.517Z,100895.80
2019-03-18T02:03:35.482Z,100898.11
2019-03-18T02:08:29.423Z,100900.72
2019-03-18T02:13:23.398Z,100897.79
2019-03-18T02:18:17.379Z,100896.31
2019-03-18T02:23:11.335Z,100894.01
2019-03-18T02:28:05.319Z,100907.76
2019-03-18T02:32:59.296Z,100906.45
2019-03-18T02:37:53.274Z,100909.71
2019-03-18T02:42:47.248Z,100900.84
2019-03-18T02:47:41.213Z,100901.67
2019-03-18T02:52:35.282Z,100906.39
2019-03-18T02:57:29.248Z,100902.50
2019-03-18T03:02:23.205Z,100899.30
2019-03-18T03:07:17.265Z,100898.99
2019-03-18T03:12:11.224Z,100896.22
2019-03-18T03:17:05.179Z,100893.06
2019-03-18T03:21:59.191Z,100900.18
2019-03-18T03:26:53.140Z,100912.46
2019-03-18T03:31:47.119Z,100907.20
2019-03-18T03:36:41.098Z,100916.62
2019-03-18T03:41:35.342Z,100920.05
2019-03-18T03:46:42.210Z,100923.20
2019-03-18T03:51:25.157Z,100941.20
2019-03-18T03:56:19.152Z,100956.19
2019-03-18T04:01:13.534Z,100953.88
2019-03-18T04:06:07.474Z,100974.83
2019-03-18T04:11:01.558Z,100979.09
2019-03-18T04:15:55.493Z,100983.80
2019-03-18T04:20:49.587Z,100987.96
2019-03-18T04:25:43.524Z,100992.47
2019-03-18T04:30:37.575Z,100987.72
2019-03-18T04:35:31.639Z,100987.72
2019-03-18T04:40:25.594Z,100989.03
2019-03-18T04:45:19.572Z,100989.56
2019-03-18T04:50:13.639Z,101002.23
2019-03-18T04:55:07.724Z,101015.52
2019-03-18T05:00:07.218Z,101020.55
2019-03-18T05:05:01.183Z,101030.13
2019-03-18T05:09:55.142Z,101033.48
2019-03-18T05:14:49.060Z,101052.72
2019-03-18T05:19:43.063Z,101057.77
2019-03-18T05:24:37.031Z,101069.53
2019-03-18T05:29:31.025Z,101079.52
2019-03-18T05:34:25.009Z,101079.98
2019-03-18T05:39:19.197Z,101078.89
2019-03-18T05:44:13.177Z,101090.23
2019-03-18T05:49:07.144Z,101087.77
2019-03-18T05:54:01.117Z,101102.55
2019-03-18T05:58:55.092Z,101111.75
2019-03-18T06:03:49.043Z,101115.63
2019-03-18T06:08:43.017Z,101120.98
2019-03-18T06:13:36.978Z,101131.19
2019-03-18T06:18:31.050Z,101146.22
2019-03-18T06:23:25.157Z,101145.90
2019-03-18T06:28:19.359Z,101148.17
2019-03-18T06:33:13.354Z,101161.08
2019-03-18T06:38:07.346Z,101179.03
2019-03-18T06:43:01.328Z,101183.75
2019-03-18T06:48:04.393Z,101184.30
2019-03-18T06:52:51.228Z,101189.40
2019-03-18T06:57:45.199Z,101198.67
2019-03-18T07:02:39.171Z,101207.89
2019-03-18T07:07:33.257Z,101209.25
2019-03-18T07:12:27.220Z,101215.39
2019-03-18T07:17:21.182Z,101220.03
2019-03-18T07:22:15.177Z,101227.22
2019-03-18T07:27:09.212Z,101232.44
2019-03-18T07:32:03.303Z,101234.42
2019-03-18T07:36:57.289Z,101250.09
2019-03-18T07:41:51.289Z,101255.45
2019-03-18T07:46:45.255Z,101262.05
2019-03-18T07:51:39.198Z,101267.55
2019-03-18T07:56:33.180Z,101274.91
2019-03-18T08:01:27.164Z,101290.66
2019-03-18T08:06:21.284Z,101294.36
2019-03-18T08:11:15.248Z,101300.06
2019-03-18T08:16:09.222Z,101308.28
2019-03-18T08:21:03.300Z,101324.41
2019-03-18T08:25:57.258Z,101325.59
2019-03-18T08:30:51.256Z,101327.22
2019-03-18T08:35:45.238Z,101328.41
2019-03-18T08:40:39.308Z,101332.34
2019-03-18T08:45:33.301Z,101350.42
2019-03-18T08:50:27.249Z,101340.41
2019-03-18T08:55:21.488Z,101348.59
2019-03-18T09:00:16.470Z,101352.69
2019-03-18T09:05:10.552Z,101353.62
2019-03-18T09:10:10.419Z,101355.33
2019-03-18T09:15:06.498Z,101372.75
2019-03-18T09:20:00.473Z,101359.84
2019-03-18T09:24:54.454Z,101370.64
2019-03-18T09:29:48.464Z,101380.69
2019-03-18T09:34:42.539Z,101378.77
2019-03-18T09:39:37.574Z,101392.50
2019-03-18T09:44:31.821Z,101383.52
2019-03-18T09:49:25.797Z,101374.38
2019-03-18T09:54:19.773Z,101378.06
2019-03-18T09:59:13.749Z,101380.50
2019-03-18T10:04:07.718Z,101387.60
2019-03-18T10:09:01.798Z,101392.87
2019-03-18T10:13:55.863Z,101397.55
2019-03-18T10:18:49.869Z,101396.22
2019-03-18T10:23:43.949Z,101407.65
2019-03-18T10:28:38.212Z,101396.86
2019-03-18T10:33:32.345Z,101401.82
2019-03-18T10:38:26.312Z,101405.29
2019-03-18T10:43:20.318Z,101412.92
2019-03-18T10:48:14.289Z,101420.67
2019-03-18T10:53:08.368Z,101437.72
2019-03-18T10:58:02.362Z,101430.71
2019-03-18T11:02:56.297Z,101434.30
2019-03-18T11:07:51.885Z,101430.69
2019-03-18T11:12:46.170Z,101440.68
2019-03-18T11:17:40.121Z,101435.22
2019-03-18T11:22:34.209Z,101430.06
2019-03-18T11:27:28.184Z,101443.34
2019-03-18T11:32:22.196Z,101447.02
2019-03-18T11:37:16.196Z,101446.68
2019-03-18T11:42:10.169Z,101445.91
2019-03-18T11:47:04.349Z,101464.20
2019-03-18T11:51:58.326Z,101480.58
2019-03-18T11:56:52.298Z,101464.52
2019-03-18T12:01:46.264Z,101456.33
2019-03-18T12:06:40.363Z,101454.75
2019-03-18T12:11:34.550Z,101467.36
2019-03-18T12:16:28.513Z,101461.32
2019-03-18T12:21:22.532Z,101464.25
2019-03-18T12:26:16.630Z,101451.96
2019-03-18T12:31:10.656Z,101461.79
2019-03-18T12:36:04.777Z,101445.86
2019-03-18T12:40:58.914Z,101455.52
2019-03-18T12:45:52.848Z,101457.16
2019-03-18T12:50:56.002Z,101442.93
2019-03-18T12:55:44.033Z,101453.14
2019-03-18T13:00:37.986Z,101472.91
2019-03-18T13:05:32.059Z,101474.70
2019-03-18T13:10:26.116Z,101487.45
2019-03-18T13:15:20.121Z,101492.89
2019-03-18T13:20:17.115Z,101488.72
2019-03-18T13:25:11.832Z,101500.38
2019-03-18T13:30:16.286Z,101505.95
2019-03-18T13:35:10.444Z,101513.38
2019-03-18T13:40:10.007Z,101509.19
2019-03-18T13:45:07.807Z,101520.05
2019-03-18T13:50:02.091Z,101534.84
2019-03-18T13:54:56.178Z,101534.80
2019-03-18T13:59:50.150Z,101520.35
2019-03-18T14:04:44.142Z,101516.49
2019-03-18T14:09:38.210Z,101523.72
2019-03-18T14:14:32.178Z,101514.39
2019-03-18T14:19:26.188Z,101512.52
2019-03-18T14:24:20.193Z,101501.69
2019-03-18T14:29:14.211Z,101492.42
2019-03-18T14:34:08.154Z,101495.27
2019-03-18T14:39:04.348Z,101499.81
2019-03-18T14:43:58.360Z,101498.88
2019-03-18T14:48:52.347Z,101501.63
2019-03-18T14:53:46.340Z,101499.83
2019-03-18T14:58:40.324Z,101510.06
2019-03-18T15:03:34.312Z,101503.12
2019-03-18T15:08:28.302Z,101498.11
2019-03-18T15:13:30.833Z,101523.16
2019-03-18T15:18:18.305Z,101530.38
2019-03-18T15:23:12.291Z,101532.99
2019-03-18T15:28:06.374Z,101536.66
2019-03-18T15:33:00.363Z,101541.04
2019-03-18T15:37:54.474Z,101550.50
2019-03-18T15:42:48.553Z,101555.59
2019-03-18T15:47:42.656Z,101549.28
2019-03-18T15:52:36.646Z,101558.08
2019-03-18T15:57:30.675Z,101551.46
2019-03-18T16:02:24.603Z,101560.20
2019-03-18T16:07:18.660Z,101554.73
2019-03-18T16:12:12.719Z,101549.14
2019-03-18T16:17:06.813Z,101559.28
2019-03-18T16:22:00.826Z,101569.25
2019-03-18T16:26:54.895Z,101576.48
2019-03-18T16:31:48.955Z,101572.71
2019-03-18T16:36:42.909Z,101580.31
2019-03-18T16:41:37.010Z,101592.82
2019-03-18T16:46:30.987Z,101596.70
2019-03-18T16:51:25.004Z,101599.12
2019-03-18T16:56:19.002Z,101601.22
2019-03-18T17:01:13.045Z,101618.50
2019-03-18T17:06:07.219Z,101630.44
2019-03-18T17:11:01.209Z,101636.47
2019-03-18T17:15:55.305Z,101634.94
2019-03-18T17:20:49.364Z,101652.58
2019-03-18T17:25:43.433Z,101663.00
2019-03-18T17:30:37.469Z,101669.96
2019-03-18T17:35:31.454Z,101679.38
2019-03-18T17:40:25.542Z,101693.77
2019-03-18T17:45:19.631Z,101701.30
2019-03-18T17:50:19.315Z,101699.23
2019-03-18T17:55:13.438Z,101705.30
2019-03-18T18:00:11.000Z,101710.43
2019-03-18T18:05:05.244Z,101722.39
2019-03-18T18:09:59.300Z,101728.81
2019-03-18T18:14:53.541Z,101750.85
2019-03-18T18:19:47.525Z,101750.20
2019-03-18T18:24:41.542Z,101756.27
2019-03-18T18:29:35.591Z,101764.20
2019-03-18T18:34:29.713Z,101771.36
2019-03-18T18:39:25.605Z,101779.80
2019-03-18T18:44:19.630Z,101786.20
2019-03-18T18:49:13.624Z,101782.94
2019-03-18T18:54:07.853Z,101783.08
2019-03-18T18:59:01.965Z,101793.33
2019-03-18T19:03:55.976Z,101807.25
2019-03-18T19:08:51.611Z,101810.48
2019-03-18T19:13:45.842Z,101811.90
2019-03-18T19:18:39.861Z,101820.27
2019-03-18T19:23:38.016Z,101827.58
2019-03-18T19:28:29.929Z,101839.73
2019-03-18T19:33:24.064Z,101850.44
2019-03-18T19:38:18.182Z,101856.64
2019-03-18T19:43:12.223Z,101864.56
2019-03-18T19:48:06.228Z,101863.87
2019-03-18T19:53:00.423Z,101869.38
2019-03-18T19:57:54.466Z,101871.38
2019-03-18T20:02:48.609Z,101879.39
2019-03-18T20:07:42.830Z,101885.53
2019-03-18T20:12:36.927Z,101889.70
2019-03-18T20:17:31.036Z,101902.91
2019-03-18T20:22:25.114Z,101903.59
2019-03-18T20:27:19.073Z,101911.37
2019-03-18T20:32:13.192Z,101921.19
2019-03-18T20:37:07.182Z,101922.16
2019-03-18T20:42:01.219Z,101931.09
2019-03-18T20:46:55.270Z,101944.52
2019-03-18T20:51:49.363Z,101941.85
2019-03-18T20:56:43.374Z,101946.40
2019-03-18T21:01:37.345Z,101955.16
2019-03-18T21:06:31.582Z,101956.94
2019-03-18T21:11:25.535Z,101967.80
2019-03-18T21:16:19.635Z,101977.31
2019-03-18T21:21:13.755Z,101976.80
2019-03-18T21:26:08.136Z,101992.51
2019-03-18T21:31:02.173Z,102005.54
2019-03-18T21:35:56.290Z,102003.63
2019-03-18T21:40:50.454Z,102009.63
2019-03-18T21:45:44.484Z,102020.83
2019-03-18T21:50:38.489Z,102029.41
2019-03-18T21:55:32.500Z,102024.86
2019-03-18T22:00:26.555Z,102026.81
2019-03-18T22:05:20.541Z,102044.06
2019-03-18T22:10:18.769Z,102035.57
2019-03-18T22:15:13.556Z,102037.14
2019-03-18T22:20:17.628Z,102045.66
2019-03-18T22:25:12.406Z,102048.23
2019-03-18T22:30:09.040Z,102045.49
2019-03-18T22:35:05.395Z,102057.56
2019-03-18T22:39:59.398Z,102054.28
2019-03-18T22:44:53.340Z,102061.05
2019-03-18T22:49:47.328Z,102059.60
2019-03-18T22:54:41.303Z,102058.77
2019-03-18T22:59:35.302Z,102062.91
2019-03-18T23:04:29.272Z,102064.45
2019-03-18T23:09:23.238Z,102072.15
2019-03-18T23:14:17.242Z,102079.73
2019-03-18T23:19:11.297Z,102071.36
2019-03-18T23:24:05.287Z,102076.74
2019-03-18T23:28:59.342Z,102076.53
2019-03-18T23:33:53.332Z,102083.00
2019-03-18T23:38:47.307Z,102090.13
2019-03-18T23:43:41.367Z,102087.22
2019-03-18T23:48:35.330Z,102089.52
2019-03-18T23:53:29.286Z,102103.48
2019-03-18T23:58:23.244Z,102105.63
